sensor_id;sensor_type;location;lat;lon;timestamp;pressure;altitude;pressure_sealevel;temperature;humidity
75549;BME280;64133;56.002;37.208;2023-02-26T00:03:09;96639.31;;;0.64;89.14
75549;BME280;64133;56.002;37.208;2023-02-26T00:08:14;96627.06;;;0.66;89.21
75549;BME280;64133;56.002;37.208;2023-02-26T00:13:20;96622.22;;;0.67;89.22
75549;BME280;64133;56.002;37.208;2023-02-26T00:18:25;96623.66;;;0.65;89.12
75549;BME280;64133;56.002;37.208;2023-02-26T00:23:30;96583.14;;;0.64;89.21
75549;BME280;64133;56.002;37.208;2023-02-26T00:28:36;96570.67;;;0.64;89.17
75549;BME280;64133;56.002;37.208;2023-02-26T00:33:42;96555.27;;;0.62;89.19
75549;BME280;64133;56.002;37.208;2023-02-26T00:38:48;96548.09;;;0.60;89.32
75549;BME280;64133;56.002;37.208;2023-02-26T00:43:52;96523.41;;;0.56;89.39
75549;BME280;64133;56.002;37.208;2023-02-26T00:48:58;96518.30;;;0.50;89.37
75549;BME280;64133;56.002;37.208;2023-02-26T00:54:04;96513.52;;;0.46;89.40
75549;BME280;64133;56.002;37.208;2023-02-26T00:59:08;96483.00;;;0.40;89.54
75549;BME280;64133;56.002;37.208;2023-02-26T01:04:14;96494.91;;;0.37;89.61
75549;BME280;64133;56.002;37.208;2023-02-26T01:09:20;96505.41;;;0.35;89.70
75549;BME280;64133;56.002;37.208;2023-02-26T01:14:25;96503.97;;;0.37;89.77
75549;BME280;64133;56.002;37.208;2023-02-26T01:19:32;96495.31;;;0.32;89.79
75549;BME280;64133;56.002;37.208;2023-02-26T01:24:35;96483.18;;;0.33;89.90
75549;BME280;64133;56.002;37.208;2023-02-26T01:29:41;96488.36;;;0.33;89.86
75549;BME280;64133;56.002;37.208;2023-02-26T01:34:47;96475.48;;;0.27;89.92
75549;BME280;64133;56.002;37.208;2023-02-26T01:39:53;96468.64;;;0.26;89.97
75549;BME280;64133;56.002;37.208;2023-02-26T01:44:58;96462.31;;;0.24;90.11
75549;BME280;64133;56.002;37.208;2023-02-26T01:50:07;96446.23;;;0.21;90.21
75549;BME280;64133;56.002;37.208;2023-02-26T01:55:10;96444.45;;;0.21;90.24
75549;BME280;64133;56.002;37.208;2023-02-26T02:10:34;96411.09;;;0.18;90.46
75549;BME280;64133;56.002;37.208;2023-02-26T02:15:41;96412.17;;;0.16;90.58
75549;BME280;64133;56.002;37.208;2023-02-26T02:20:55;96411.13;;;0.13;90.56
75549;BME280;64133;56.002;37.208;2023-02-26T02:26:36;96400.78;;;0.13;90.69
75549;BME280;64133;56.002;37.208;2023-02-26T02:31:42;96401.34;;;0.16;90.73
75549;BME280;64133;56.002;37.208;2023-02-26T02:36:46;96392.76;;;0.16;90.59
75549;BME280;64133;56.002;37.208;2023-02-26T02:41:51;96390.80;;;0.14;90.84
75549;BME280;64133;56.002;37.208;2023-02-26T02:46:55;96389.84;;;0.15;90.81
75549;BME280;64133;56.002;37.208;2023-02-26T02:52:01;96392.42;;;0.15;90.84
75549;BME280;64133;56.002;37.208;2023-02-26T02:57:05;96369.61;;;0.14;90.83
75549;BME280;64133;56.002;37.208;2023-02-26T03:02:10;96362.66;;;0.15;90.89
75549;BME280;64133;56.002;37.208;2023-02-26T03:07:14;96364.48;;;0.09;90.92
75549;BME280;64133;56.002;37.208;2023-02-26T03:12:19;96353.13;;;0.06;91.10
75549;BME280;64133;56.002;37.208;2023-02-26T03:17:25;96347.13;;;0.05;91.15
75549;BME280;64133;56.002;37.208;2023-02-26T03:22:31;96350.25;;;0.09;91.29
75549;BME280;64133;56.002;37.208;2023-02-26T03:27:34;96355.08;;;0.17;91.36
75549;BME280;64133;56.002;37.208;2023-02-26T03:32:40;96334.45;;;0.12;91.22
75549;BME280;64133;56.002;37.208;2023-02-26T03:37:45;96344.88;;;0.16;91.47
75549;BME280;64133;56.002;37.208;2023-02-26T03:42:50;96341.95;;;0.15;91.48
75549;BME280;64133;56.002;37.208;2023-02-26T03:47:54;96345.43;;;0.19;91.49
75549;BME280;64133;56.002;37.208;2023-02-26T03:52:58;96348.49;;;0.29;91.56
75549;BME280;64133;56.002;37.208;2023-02-26T03:58:03;96352.70;;;0.30;91.56
75549;BME280;64133;56.002;37.208;2023-02-26T04:03:10;96358.84;;;0.29;91.59
75549;BME280;64133;56.002;37.208;2023-02-26T04:08:13;96352.70;;;0.30;91.59
75549;BME280;64133;56.002;37.208;2023-02-26T04:13:18;96361.02;;;0.33;91.67
75549;BME280;64133;56.002;37.208;2023-02-26T04:18:22;96361.29;;;0.30;91.61
75549;BME280;64133;56.002;37.208;2023-02-26T04:23:27;96377.30;;;0.30;91.62
75549;BME280;64133;56.002;37.208;2023-02-26T04:28:32;96386.43;;;0.34;91.67
75549;BME280;64133;56.002;37.208;2023-02-26T04:33:36;96390.13;;;0.41;91.76
75549;BME280;64133;56.002;37.208;2023-02-26T04:38:41;96388.76;;;0.37;91.73
75549;BME280;64133;56.002;37.208;2023-02-26T04:43:46;96382.95;;;0.29;91.71
75549;BME280;64133;56.002;37.208;2023-02-26T04:48:50;96401.08;;;0.39;91.77
75549;BME280;64133;56.002;37.208;2023-02-26T04:53:55;96428.41;;;0.37;91.73
75549;BME280;64133;56.002;37.208;2023-02-26T04:58:59;96439.80;;;0.40;91.71
75549;BME280;64133;56.002;37.208;2023-02-26T05:04:04;96423.30;;;0.41;91.78
75549;BME280;64133;56.002;37.208;2023-02-26T05:09:09;96436.32;;;0.45;91.73
75549;BME280;64133;56.002;37.208;2023-02-26T05:14:13;96444.16;;;0.49;91.73
75549;BME280;64133;56.002;37.208;2023-02-26T05:19:18;96454.11;;;0.54;91.66
75549;BME280;64133;56.002;37.208;2023-02-26T05:24:23;96463.92;;;0.60;91.69
75549;BME280;64133;56.002;37.208;2023-02-26T05:29:27;96478.60;;;0.65;91.53
75549;BME280;64133;56.002;37.208;2023-02-26T05:34:32;96495.07;;;0.64;91.43
75549;BME280;64133;56.002;37.208;2023-02-26T05:39:37;96491.34;;;0.63;91.22
75549;BME280;64133;56.002;37.208;2023-02-26T05:44:41;96507.02;;;0.71;91.31
75549;BME280;64133;56.002;37.208;2023-02-26T05:49:46;96497.81;;;0.63;91.02
75549;BME280;64133;56.002;37.208;2023-02-26T05:54:51;96520.53;;;0.74;90.83
75549;BME280;64133;56.002;37.208;2023-02-26T05:59:55;96527.01;;;0.74;90.68
75549;BME280;64133;56.002;37.208;2023-02-26T06:05:00;96541.92;;;0.77;90.49
75549;BME280;64133;56.002;37.208;2023-02-26T06:10:06;96549.84;;;0.85;90.45
75549;BME280;64133;56.002;37.208;2023-02-26T06:15:11;96557.77;;;0.93;90.18
75549;BME280;64133;56.002;37.208;2023-02-26T06:20:16;96558.98;;;1.08;89.95
75549;BME280;64133;56.002;37.208;2023-02-26T06:25:21;96565.20;;;1.21;89.62
75549;BME280;64133;56.002;37.208;2023-02-26T06:30:26;96565.73;;;1.34;89.10
75549;BME280;64133;56.002;37.208;2023-02-26T06:35:30;96579.88;;;1.36;88.42
75549;BME280;64133;56.002;37.208;2023-02-26T06:40:35;96589.36;;;1.41;88.32
75549;BME280;64133;56.002;37.208;2023-02-26T06:45:40;96583.34;;;1.50;87.89
75549;BME280;64133;56.002;37.208;2023-02-26T06:50:45;96589.19;;;1.71;87.40
75549;BME280;64133;56.002;37.208;2023-02-26T06:55:51;96605.24;;;1.71;86.89
75549;BME280;64133;56.002;37.208;2023-02-26T07:00:55;96614.94;;;1.79;86.62
75549;BME280;64133;56.002;37.208;2023-02-26T07:06:00;96623.59;;;1.73;86.36
75549;BME280;64133;56.002;37.208;2023-02-26T07:11:04;96624.37;;;1.50;86.19
75549;BME280;64133;56.002;37.208;2023-02-26T07:16:09;96631.20;;;1.61;86.02
75549;BME280;64133;56.002;37.208;2023-02-26T07:21:14;96638.22;;;1.55;85.76
75549;BME280;64133;56.002;37.208;2023-02-26T07:26:18;96640.54;;;1.68;85.54
75549;BME280;64133;56.002;37.208;2023-02-26T07:31:23;96643.41;;;1.55;85.36
75549;BME280;64133;56.002;37.208;2023-02-26T07:36:28;96648.94;;;1.46;85.35
75549;BME280;64133;56.002;37.208;2023-02-26T07:41:32;96648.59;;;1.55;85.39
75549;BME280;64133;56.002;37.208;2023-02-26T07:46:37;96636.03;;;1.80;85.12
75549;BME280;64133;56.002;37.208;2023-02-26T07:51:42;96659.25;;;1.71;84.51
75549;BME280;64133;56.002;37.208;2023-02-26T07:56:46;96662.84;;;1.94;84.07
75549;BME280;64133;56.002;37.208;2023-02-26T08:01:51;96665.54;;;1.79;83.71
75549;BME280;64133;56.002;37.208;2023-02-26T08:06:55;96665.76;;;2.14;83.43
75549;BME280;64133;56.002;37.208;2023-02-26T08:12:00;96676.78;;;2.26;82.50
75549;BME280;64133;56.002;37.208;2023-02-26T08:17:05;96690.17;;;1.98;82.73
75549;BME280;64133;56.002;37.208;2023-02-26T08:22:10;96698.98;;;1.82;83.02
75549;BME280;64133;56.002;37.208;2023-02-26T08:27:15;96716.70;;;2.58;83.62
75549;BME280;64133;56.002;37.208;2023-02-26T08:32:19;96731.30;;;3.06;81.87
75549;BME280;64133;56.002;37.208;2023-02-26T08:37:24;96731.45;;;3.99;80.30
75549;BME280;64133;56.002;37.208;2023-02-26T08:42:29;96725.95;;;4.02;76.98
75549;BME280;64133;56.002;37.208;2023-02-26T08:47:33;96746.70;;;3.03;77.75
75549;BME280;64133;56.002;37.208;2023-02-26T08:52:38;96747.16;;;2.75;77.82
75549;BME280;64133;56.002;37.208;2023-02-26T08:57:42;96764.66;;;2.50;78.23
75549;BME280;64133;56.002;37.208;2023-02-26T09:02:47;96774.38;;;2.38;78.47
75549;BME280;64133;56.002;37.208;2023-02-26T09:07:52;96778.56;;;2.16;78.93
75549;BME280;64133;56.002;37.208;2023-02-26T09:12:57;96788.05;;;2.21;78.61
75549;BME280;64133;56.002;37.208;2023-02-26T09:18:01;96795.59;;;2.14;78.68
75549;BME280;64133;56.002;37.208;2023-02-26T09:23:06;96809.44;;;1.99;78.93
75549;BME280;64133;56.002;37.208;2023-02-26T09:28:10;96815.00;;;2.00;78.83
75549;BME280;64133;56.002;37.208;2023-02-26T09:33:15;96823.04;;;1.88;78.92
75549;BME280;64133;56.002;37.208;2023-02-26T09:38:20;96845.62;;;1.82;78.99
75549;BME280;64133;56.002;37.208;2023-02-26T09:43:46;96843.42;;;1.77;79.62
75549;BME280;64133;56.002;37.208;2023-02-26T09:48:47;96844.97;;;1.99;78.63
75549;BME280;64133;56.002;37.208;2023-02-26T09:53:54;96846.25;;;1.80;78.44
75549;BME280;64133;56.002;37.208;2023-02-26T09:58:59;96843.65;;;1.80;78.04
75549;BME280;64133;56.002;37.208;2023-02-26T10:09:24;96857.95;;;1.74;77.83
75549;BME280;64133;56.002;37.208;2023-02-26T10:14:29;96862.33;;;1.98;77.68
75549;BME280;64133;56.002;37.208;2023-02-26T10:19:34;96854.02;;;2.34;76.91
75549;BME280;64133;56.002;37.208;2023-02-26T10:24:40;96876.77;;;2.84;75.69
75549;BME280;64133;56.002;37.208;2023-02-26T10:29:45;96865.14;;;2.88;75.30
75549;BME280;64133;56.002;37.208;2023-02-26T10:34:52;96865.09;;;2.74;75.14
75549;BME280;64133;56.002;37.208;2023-02-26T10:40:07;96878.67;;;2.82;74.65
75549;BME280;64133;56.002;37.208;2023-02-26T10:45:14;96878.38;;;2.62;74.74
75549;BME280;64133;56.002;37.208;2023-02-26T10:50:19;96891.36;;;2.71;74.27
75549;BME280;64133;56.002;37.208;2023-02-26T10:55:36;96891.26;;;2.09;74.63
75549;BME280;64133;56.002;37.208;2023-02-26T11:00:43;96892.24;;;1.93;75.38
75549;BME280;64133;56.002;37.208;2023-02-26T11:05:47;96904.30;;;1.63;75.88
75549;BME280;64133;56.002;37.208;2023-02-26T11:10:53;96916.12;;;1.62;76.32
75549;BME280;64133;56.002;37.208;2023-02-26T11:15:57;96915.66;;;1.57;76.73
75549;BME280;64133;56.002;37.208;2023-02-26T11:21:02;96911.95;;;1.80;76.54
75549;BME280;64133;56.002;37.208;2023-02-26T11:26:07;96920.67;;;2.04;76.27
75549;BME280;64133;56.002;37.208;2023-02-26T11:31:14;96923.18;;;2.25;75.63
75549;BME280;64133;56.002;37.208;2023-02-26T11:36:18;96948.84;;;1.84;75.99
75549;BME280;64133;56.002;37.208;2023-02-26T11:41:22;96987.58;;;1.60;77.08
75549;BME280;64133;56.002;37.208;2023-02-26T11:46:27;96982.34;;;1.50;78.58
75549;BME280;64133;56.002;37.208;2023-02-26T11:51:31;96972.91;;;1.95;77.78
75549;BME280;64133;56.002;37.208;2023-02-26T11:56:37;96972.09;;;1.95;77.21
75549;BME280;64133;56.002;37.208;2023-02-26T12:01:41;96969.58;;;2.14;76.58
75549;BME280;64133;56.002;37.208;2023-02-26T12:06:47;96986.83;;;2.69;75.17
75549;BME280;64133;56.002;37.208;2023-02-26T12:17:37;96993.06;;;2.72;73.14
75549;BME280;64133;56.002;37.208;2023-02-26T12:22:48;97005.75;;;2.56;72.23
75549;BME280;64133;56.002;37.208;2023-02-26T12:28:04;97007.20;;;2.30;72.16
75549;BME280;64133;56.002;37.208;2023-02-26T12:33:15;97005.63;;;2.08;72.28
75549;BME280;64133;56.002;37.208;2023-02-26T12:38:26;97010.13;;;2.31;72.15
75549;BME280;64133;56.002;37.208;2023-02-26T12:43:34;96996.24;;;2.51;71.24
75549;BME280;64133;56.002;37.208;2023-02-26T12:49:07;97004.50;;;2.85;70.44
75549;BME280;64133;56.002;37.208;2023-02-26T12:54:30;96999.74;;;2.65;69.36
75549;BME280;64133;56.002;37.208;2023-02-26T12:59:49;97004.47;;;2.06;69.81
75549;BME280;64133;56.002;37.208;2023-02-26T13:05:20;97025.91;;;1.62;70.51
75549;BME280;64133;56.002;37.208;2023-02-26T13:10:27;97065.00;;;1.29;71.48
75549;BME280;64133;56.002;37.208;2023-02-26T13:15:49;97076.83;;;0.84;71.34
75549;BME280;64133;56.002;37.208;2023-02-26T13:20:54;97086.66;;;0.46;70.49
75549;BME280;64133;56.002;37.208;2023-02-26T13:25:59;97109.16;;;0.18;69.68
75549;BME280;64133;56.002;37.208;2023-02-26T13:31:04;97111.27;;;0.24;70.00
75549;BME280;64133;56.002;37.208;2023-02-26T13:36:09;97126.08;;;0.16;70.04
75549;BME280;64133;56.002;37.208;2023-02-26T13:41:16;97126.70;;;0.31;70.16
75549;BME280;64133;56.002;37.208;2023-02-26T13:46:24;97129.52;;;0.39;69.63
75549;BME280;64133;56.002;37.208;2023-02-26T13:51:34;97136.70;;;0.36;69.16
75549;BME280;64133;56.002;37.208;2023-02-26T13:57:05;97139.62;;;0.14;69.25
75549;BME280;64133;56.002;37.208;2023-02-26T14:02:43;97139.59;;;0.03;69.60
75549;BME280;64133;56.002;37.208;2023-02-26T14:07:51;97161.59;;;-0.08;69.31
75549;BME280;64133;56.002;37.208;2023-02-26T14:13:06;97180.81;;;-0.23;69.75
75549;BME280;64133;56.002;37.208;2023-02-26T14:18:19;97181.84;;;-0.32;70.29
75549;BME280;64133;56.002;37.208;2023-02-26T14:23:34;97186.13;;;-0.19;70.70
75549;BME280;64133;56.002;37.208;2023-02-26T14:28:56;97197.62;;;-0.29;70.73
75549;BME280;64133;56.002;37.208;2023-02-26T14:34:11;97198.52;;;-0.36;70.86
75549;BME280;64133;56.002;37.208;2023-02-26T14:39:21;97206.14;;;-0.40;71.19
75549;BME280;64133;56.002;37.208;2023-02-26T14:44:22;97221.95;;;-0.56;72.14
75549;BME280;64133;56.002;37.208;2023-02-26T14:49:28;97232.55;;;-0.71;72.78
75549;BME280;64133;56.002;37.208;2023-02-26T14:54:36;97235.52;;;-0.83;73.64
75549;BME280;64133;56.002;37.208;2023-02-26T15:00:02;97243.39;;;-0.85;74.28
75549;BME280;64133;56.002;37.208;2023-02-26T15:10:50;97261.03;;;-0.97;74.94
75549;BME280;64133;56.002;37.208;2023-02-26T15:15:55;97263.47;;;-1.01;75.19
75549;BME280;64133;56.002;37.208;2023-02-26T15:21:03;97270.31;;;-1.00;75.35
75549;BME280;64133;56.002;37.208;2023-02-26T15:26:07;97276.16;;;-1.04;76.09
75549;BME280;64133;56.002;37.208;2023-02-26T15:31:12;97282.96;;;-1.03;76.50
75549;BME280;64133;56.002;37.208;2023-02-26T15:36:18;97290.02;;;-1.17;75.97
75549;BME280;64133;56.002;37.208;2023-02-26T15:46:36;97316.08;;;-1.28;76.17
75549;BME280;64133;56.002;37.208;2023-02-26T15:51:40;97327.36;;;-1.16;75.96
75549;BME280;64133;56.002;37.208;2023-02-26T15:56:45;97342.42;;;-1.22;75.28
75549;BME280;64133;56.002;37.208;2023-02-26T16:01:49;97348.34;;;-1.08;75.29
75549;BME280;64133;56.002;37.208;2023-02-26T16:06:55;97353.73;;;-1.18;74.50
75549;BME280;64133;56.002;37.208;2023-02-26T16:12:00;97358.20;;;-1.20;74.31
75549;BME280;64133;56.002;37.208;2023-02-26T16:17:04;97373.27;;;-1.39;74.24
75549;BME280;64133;56.002;37.208;2023-02-26T16:22:13;97371.64;;;-1.67;73.90
75549;BME280;64133;56.002;37.208;2023-02-26T16:27:16;97382.28;;;-1.79;74.01
75549;BME280;64133;56.002;37.208;2023-02-26T16:32:21;97379.51;;;-1.96;73.93
75549;BME280;64133;56.002;37.208;2023-02-26T16:37:31;97401.55;;;-1.78;73.07
75549;BME280;64133;56.002;37.208;2023-02-26T16:42:42;97409.06;;;-1.67;73.23
75549;BME280;64133;56.002;37.208;2023-02-26T16:47:42;97404.55;;;-1.71;72.86
75549;BME280;64133;56.002;37.208;2023-02-26T16:52:57;97431.47;;;-1.68;72.71
75549;BME280;64133;56.002;37.208;2023-02-26T16:57:53;97447.79;;;-1.74;72.54
75549;BME280;64133;56.002;37.208;2023-02-26T17:02:58;97454.22;;;-1.94;72.29
75549;BME280;64133;56.002;37.208;2023-02-26T17:08:06;97454.65;;;-1.88;71.97
75549;BME280;64133;56.002;37.208;2023-02-26T17:13:14;97472.53;;;-1.85;71.78
75549;BME280;64133;56.002;37.208;2023-02-26T17:18:18;97482.67;;;-1.82;71.26
75549;BME280;64133;56.002;37.208;2023-02-26T17:23:24;97479.73;;;-1.90;71.27
75549;BME280;64133;56.002;37.208;2023-02-26T17:28:28;97476.40;;;-1.85;71.46
75549;BME280;64133;56.002;37.208;2023-02-26T17:33:32;97487.29;;;-1.87;71.05
75549;BME280;64133;56.002;37.208;2023-02-26T17:38:37;97497.61;;;-1.94;70.93
75549;BME280;64133;56.002;37.208;2023-02-26T17:43:42;97500.37;;;-1.97;71.11
75549;BME280;64133;56.002;37.208;2023-02-26T17:48:46;97517.25;;;-1.91;70.94
75549;BME280;64133;56.002;37.208;2023-02-26T17:53:51;97515.10;;;-1.92;70.96
75549;BME280;64133;56.002;37.208;2023-02-26T18:04:10;97526.36;;;-1.86;71.32
75549;BME280;64133;56.002;37.208;2023-02-26T18:09:15;97540.47;;;-1.91;71.03
75549;BME280;64133;56.002;37.208;2023-02-26T18:14:20;97545.34;;;-1.87;71.37
75549;BME280;64133;56.002;37.208;2023-02-26T18:19:24;97555.94;;;-1.98;71.40
75549;BME280;64133;56.002;37.208;2023-02-26T18:24:29;97554.93;;;-2.03;71.68
75549;BME280;64133;56.002;37.208;2023-02-26T18:29:34;97570.77;;;-2.02;72.13
75549;BME280;64133;56.002;37.208;2023-02-26T18:34:38;97575.55;;;-2.10;72.26
75549;BME280;64133;56.002;37.208;2023-02-26T18:39:43;97586.63;;;-2.08;72.64
75549;BME280;64133;56.002;37.208;2023-02-26T18:44:48;97597.02;;;-2.10;72.62
75549;BME280;64133;56.002;37.208;2023-02-26T18:49:52;97605.02;;;-2.14;72.76
75549;BME280;64133;56.002;37.208;2023-02-26T18:54:57;97616.29;;;-2.08;72.72
75549;BME280;64133;56.002;37.208;2023-02-26T19:00:03;97621.91;;;-2.09;72.57
75549;BME280;64133;56.002;37.208;2023-02-26T19:05:09;97623.64;;;-2.16;72.65
75549;BME280;64133;56.002;37.208;2023-02-26T19:10:14;97631.74;;;-2.15;72.61
75549;BME280;64133;56.002;37.208;2023-02-26T19:15:19;97632.84;;;-2.19;72.57
75549;BME280;64133;56.002;37.208;2023-02-26T19:20:23;97645.20;;;-2.17;72.80
75549;BME280;64133;56.002;37.208;2023-02-26T19:25:28;97650.99;;;-2.21;72.76
75549;BME280;64133;56.002;37.208;2023-02-26T19:30:33;97654.86;;;-2.14;72.75
75549;BME280;64133;56.002;37.208;2023-02-26T19:35:37;97671.43;;;-2.25;72.93
75549;BME280;64133;56.002;37.208;2023-02-26T19:40:42;97680.98;;;-2.27;72.86
75549;BME280;64133;56.002;37.208;2023-02-26T19:45:47;97692.95;;;-2.33;73.06
75549;BME280;64133;56.002;37.208;2023-02-26T19:50:53;97687.43;;;-2.27;72.94
75549;BME280;64133;56.002;37.208;2023-02-26T19:55:56;97708.98;;;-2.28;73.07
75549;BME280;64133;56.002;37.208;2023-02-26T20:01:02;97701.47;;;-2.40;72.97
75549;BME280;64133;56.002;37.208;2023-02-26T20:06:07;97728.95;;;-2.32;72.93
75549;BME280;64133;56.002;37.208;2023-02-26T20:11:11;97737.91;;;-2.30;72.73
75549;BME280;64133;56.002;37.208;2023-02-26T20:16:16;97740.09;;;-2.31;72.76
75549;BME280;64133;56.002;37.208;2023-02-26T20:21:20;97758.13;;;-2.38;72.73
75549;BME280;64133;56.002;37.208;2023-02-26T20:26:25;97757.67;;;-2.38;72.75
75549;BME280;64133;56.002;37.208;2023-02-26T20:31:30;97767.06;;;-2.37;72.96
75549;BME280;64133;56.002;37.208;2023-02-26T20:36:34;97780.20;;;-2.41;73.04
75549;BME280;64133;56.002;37.208;2023-02-26T20:41:39;97775.30;;;-2.46;73.00
75549;BME280;64133;56.002;37.208;2023-02-26T20:46:44;97792.84;;;-2.53;72.89
75549;BME280;64133;56.002;37.208;2023-02-26T20:51:48;97791.37;;;-2.57;73.09
75549;BME280;64133;56.002;37.208;2023-02-26T20:56:53;97789.98;;;-2.55;73.32
75549;BME280;64133;56.002;37.208;2023-02-26T21:01:58;97800.06;;;-2.75;72.93
75549;BME280;64133;56.002;37.208;2023-02-26T21:07:03;97838.20;;;-2.57;73.29
75549;BME280;64133;56.002;37.208;2023-02-26T21:12:16;97856.08;;;-2.54;73.23
75549;BME280;64133;56.002;37.208;2023-02-26T21:17:20;97851.79;;;-2.62;73.30
75549;BME280;64133;56.002;37.208;2023-02-26T21:22:25;97854.92;;;-2.64;73.53
75549;BME280;64133;56.002;37.208;2023-02-26T21:27:30;97867.47;;;-2.58;73.52
75549;BME280;64133;56.002;37.208;2023-02-26T21:32:34;97871.55;;;-2.70;73.85
75549;BME280;64133;56.002;37.208;2023-02-26T21:37:39;97892.16;;;-2.70;74.06
75549;BME280;64133;56.002;37.208;2023-02-26T21:42:44;97916.19;;;-2.69;74.09
75549;BME280;64133;56.002;37.208;2023-02-26T21:47:48;97914.36;;;-2.76;74.11
75549;BME280;64133;56.002;37.208;2023-02-26T21:52:53;97927.16;;;-2.74;74.16
75549;BME280;64133;56.002;37.208;2023-02-26T21:57:57;97940.69;;;-2.87;73.92
75549;BME280;64133;56.002;37.208;2023-02-26T22:03:05;97951.06;;;-2.97;73.94
75549;BME280;64133;56.002;37.208;2023-02-26T22:08:10;97967.06;;;-2.90;74.11
75549;BME280;64133;56.002;37.208;2023-02-26T22:13:14;97973.27;;;-2.86;73.71
75549;BME280;64133;56.002;37.208;2023-02-26T22:18:19;97996.00;;;-2.85;73.37
75549;BME280;64133;56.002;37.208;2023-02-26T22:23:23;98000.46;;;-2.89;73.05
75549;BME280;64133;56.002;37.208;2023-02-26T22:28:28;98005.09;;;-2.95;73.17
75549;BME280;64133;56.002;37.208;2023-02-26T22:33:33;98027.37;;;-2.94;73.18
75549;BME280;64133;56.002;37.208;2023-02-26T22:38:37;98032.61;;;-2.96;73.23
75549;BME280;64133;56.002;37.208;2023-02-26T22:43:42;98048.80;;;-3.02;72.86
75549;BME280;64133;56.002;37.208;2023-02-26T22:48:47;98064.16;;;-3.01;72.93
75549;BME280;64133;56.002;37.208;2023-02-26T22:53:51;98066.74;;;-3.01;72.91
75549;BME280;64133;56.002;37.208;2023-02-26T22:58:56;98082.05;;;-3.07;72.84
75549;BME280;64133;56.002;37.208;2023-02-26T23:04:01;98082.99;;;-3.18;73.11
75549;BME280;64133;56.002;37.208;2023-02-26T23:09:05;98090.56;;;-3.23;73.26
75549;BME280;64133;56.002;37.208;2023-02-26T23:14:10;98100.41;;;-3.23;73.27
75549;BME280;64133;56.002;37.208;2023-02-26T23:19:13;98105.96;;;-3.22;73.11
75549;BME280;64133;56.002;37.208;2023-02-26T23:24:18;98122.73;;;-3.13;73.03
75549;BME280;64133;56.002;37.208;2023-02-26T23:29:22;98122.70;;;-3.22;73.06
75549;BME280;64133;56.002;37.208;2023-02-26T23:34:27;98129.48;;;-3.30;72.86
75549;BME280;64133;56.002;37.208;2023-02-26T23:39:32;98145.35;;;-3.39;72.84
75549;BME280;64133;56.002;37.208;2023-02-26T23:44:35;98166.73;;;-3.47;72.95
75549;BME280;64133;56.002;37.208;2023-02-26T23:49:40;98171.14;;;-3.40;72.84
75549;BME280;64133;56.002;37.208;2023-02-26T23:54:44;98184.38;;;-3.48;72.85
75549;BME280;64133;56.002;37.208;2023-02-26T23:59:48;98183.38;;;-3.35;72.94
